sensor_id;sensor_type;location;lat;lon;timestamp;pressure;altitude;pressure_sealevel;temperature;humidity
53940;BME280;39850;43.324;21.916;2024-03-08T00:23:01;994.0;;;5.5;82.0
53940;BME280;39850;43.324;21.916;2024-03-08T00:27:39;994.0;;;5.5;82.0
53940;BME280;39850;43.324;21.916;2024-03-08T00:32:17;994.0;;;5.4;82.0
53940;BME280;39850;43.324;21.916;2024-03-08T00:36:54;994.0;;;5.4;82.0
53940;BME280;39850;43.324;21.916;2024-03-08T00:41:31;994.0;;;5.4;82.0
53940;BME280;39850;43.324;21.916;2024-03-08T00:46:08;994.0;;;5.4;82.0
53940;BME280;39850;43.324;21.916;2024-03-08T00:50:45;994.0;;;5.4;82.0
53940;BME280;39850;43.324;21.916;2024-03-08T00:55:22;994.0;;;5.4;81.0
53940;BME280;39850;43.324;21.916;2024-03-08T00:59:59;994.0;;;5.4;81.0
53940;BME280;39850;43.324;21.916;2024-03-08T01:04:36;994.0;;;5.3;80.0
53940;BME280;39850;43.324;21.916;2024-03-08T01:09:13;994.0;;;5.3;80.0
53940;BME280;39850;43.324;21.916;2024-03-08T01:46:19;994.0;;;6.4;80.0
53940;BME280;39850;43.324;21.916;2024-03-08T01:50:59;994.0;;;6.4;80.0
53940;BME280;39850;43.324;21.916;2024-03-08T01:55:39;994.0;;;6.4;80.0
53940;BME280;39850;43.324;21.916;2024-03-08T02:00:21;994.0;;;6.4;80.0
53940;BME280;39850;43.324;21.916;2024-03-08T02:05:00;994.0;;;6.4;80.0
53940;BME280;39850;43.324;21.916;2024-03-08T02:09:37;994.0;;;6.4;80.0
53940;BME280;39850;43.324;21.916;2024-03-08T02:14:14;994.0;;;6.4;80.0
53940;BME280;39850;43.324;21.916;2024-03-08T02:18:51;994.0;;;6.4;80.0
53940;BME280;39850;43.324;21.916;2024-03-08T02:23:28;994.0;;;6.4;79.0
53940;BME280;39850;43.324;21.916;2024-03-08T02:28:06;994.0;;;6.4;79.0
53940;BME280;39850;43.324;21.916;2024-03-08T03:05:01;994.0;;;6.4;76.0
53940;BME280;39850;43.324;21.916;2024-03-08T03:09:37;994.0;;;6.4;76.0
53940;BME280;39850;43.324;21.916;2024-03-08T03:14:15;994.0;;;6.4;76.0
53940;BME280;39850;43.324;21.916;2024-03-08T03:18:51;994.0;;;6.4;76.0
53940;BME280;39850;43.324;21.916;2024-03-08T03:23:28;994.0;;;6.4;76.0
53940;BME280;39850;43.324;21.916;2024-03-08T03:28:06;994.0;;;6.4;76.0
53940;BME280;39850;43.324;21.916;2024-03-08T03:32:43;994.0;;;6.4;76.0
53940;BME280;39850;43.324;21.916;2024-03-08T03:37:20;994.0;;;6.4;76.0
53940;BME280;39850;43.324;21.916;2024-03-08T03:41:57;994.0;;;6.4;77.0
53940;BME280;39850;43.324;21.916;2024-03-08T03:46:34;994.0;;;6.4;77.0
53940;BME280;39850;43.324;21.916;2024-03-08T03:51:11;994.0;;;6.4;77.0
53940;BME280;39850;43.324;21.916;2024-03-08T04:23:27;994.0;;;6.4;74.0
53940;BME280;39850;43.324;21.916;2024-03-08T04:28:05;994.0;;;6.4;74.0
53940;BME280;39850;43.324;21.916;2024-03-08T04:32:42;994.0;;;6.4;75.0
53940;BME280;39850;43.324;21.916;2024-03-08T04:37:20;994.0;;;6.4;75.0
53940;BME280;39850;43.324;21.916;2024-03-08T04:42:05;994.0;;;6.4;75.0
53940;BME280;39850;43.324;21.916;2024-03-08T04:46:42;994.0;;;6.4;75.0
53940;BME280;39850;43.324;21.916;2024-03-08T04:51:19;994.0;;;6.4;75.0
53940;BME280;39850;43.324;21.916;2024-03-08T04:55:56;994.0;;;5.9;76.0
53940;BME280;39850;43.324;21.916;2024-03-08T05:00:33;994.0;;;5.9;76.0
53940;BME280;39850;43.324;21.916;2024-03-08T05:05:09;994.0;;;5.4;76.0
53940;BME280;39850;43.324;21.916;2024-03-08T05:09:46;994.0;;;5.4;76.0
53940;BME280;39850;43.324;21.916;2024-03-08T05:46:40;995.0;;;5.5;79.0
53940;BME280;39850;43.324;21.916;2024-03-08T05:51:17;995.0;;;5.5;79.0
53940;BME280;39850;43.324;21.916;2024-03-08T05:55:54;995.0;;;5.2;80.0
53940;BME280;39850;43.324;21.916;2024-03-08T06:00:31;995.0;;;5.2;80.0
53940;BME280;39850;43.324;21.916;2024-03-08T06:05:11;995.0;;;5.0;81.0
53940;BME280;39850;43.324;21.916;2024-03-08T06:09:48;995.0;;;5.0;81.0
53940;BME280;39850;43.324;21.916;2024-03-08T06:14:24;995.0;;;4.7;82.0
53940;BME280;39850;43.324;21.916;2024-03-08T06:19:01;995.0;;;4.7;82.0
53940;BME280;39850;43.324;21.916;2024-03-08T06:23:39;995.0;;;4.4;82.0
53940;BME280;39850;43.324;21.916;2024-03-08T06:28:16;995.0;;;4.4;82.0
53940;BME280;39850;43.324;21.916;2024-03-08T07:05:12;995.0;;;5.5;79.0
53940;BME280;39850;43.324;21.916;2024-03-08T07:09:49;995.0;;;5.5;79.0
53940;BME280;39850;43.324;21.916;2024-03-08T07:14:26;995.0;;;5.5;79.0
53940;BME280;39850;43.324;21.916;2024-03-08T07:19:02;995.0;;;5.5;79.0
53940;BME280;39850;43.324;21.916;2024-03-08T07:23:39;995.0;;;5.5;79.0
53940;BME280;39850;43.324;21.916;2024-03-08T07:28:15;995.0;;;5.5;79.0
53940;BME280;39850;43.324;21.916;2024-03-08T07:32:52;995.0;;;5.5;79.0
53940;BME280;39850;43.324;21.916;2024-03-08T07:37:28;995.0;;;5.5;79.0
53940;BME280;39850;43.324;21.916;2024-03-08T07:42:06;995.0;;;5.5;79.0
53940;BME280;39850;43.324;21.916;2024-03-08T07:46:42;995.0;;;5.5;79.0
53940;BME280;39850;43.324;21.916;2024-03-08T07:51:19;995.0;;;5.5;79.0
53940;BME280;39850;43.324;21.916;2024-03-08T08:23:36;996.0;;;5.5;79.0
53940;BME280;39850;43.324;21.916;2024-03-08T08:28:13;996.0;;;5.5;79.0
53940;BME280;39850;43.324;21.916;2024-03-08T08:32:50;996.0;;;5.5;79.0
53940;BME280;39850;43.324;21.916;2024-03-08T08:37:27;996.0;;;5.4;78.0
53940;BME280;39850;43.324;21.916;2024-03-08T08:42:05;996.0;;;5.4;78.0
53940;BME280;39850;43.324;21.916;2024-03-08T08:46:42;996.0;;;5.5;76.0
53940;BME280;39850;43.324;21.916;2024-03-08T08:51:19;996.0;;;5.5;76.0
53940;BME280;39850;43.324;21.916;2024-03-08T08:55:56;996.0;;;5.4;76.0
53940;BME280;39850;43.324;21.916;2024-03-08T09:00:33;996.0;;;5.4;76.0
53940;BME280;39850;43.324;21.916;2024-03-08T09:05:11;995.0;;;5.5;75.0
53940;BME280;39850;43.324;21.916;2024-03-08T09:09:48;995.0;;;5.5;75.0
53940;BME280;39850;43.324;21.916;2024-03-08T09:46:42;996.0;;;6.2;75.0
53940;BME280;39850;43.324;21.916;2024-03-08T09:51:28;996.0;;;6.2;75.0
53940;BME280;39850;43.324;21.916;2024-03-08T09:56:06;996.0;;;6.4;74.0
53940;BME280;39850;43.324;21.916;2024-03-08T10:00:43;996.0;;;6.4;74.0
53940;BME280;39850;43.324;21.916;2024-03-08T10:05:19;996.0;;;6.5;72.0
53940;BME280;39850;43.324;21.916;2024-03-08T10:09:56;996.0;;;6.5;72.0
53940;BME280;39850;43.324;21.916;2024-03-08T10:14:33;996.0;;;6.9;72.0
53940;BME280;39850;43.324;21.916;2024-03-08T10:19:09;996.0;;;6.9;72.0
53940;BME280;39850;43.324;21.916;2024-03-08T10:23:46;996.0;;;7.3;72.0
53940;BME280;39850;43.324;21.916;2024-03-08T10:28:23;996.0;;;7.3;72.0
53940;BME280;39850;43.324;21.916;2024-03-08T10:33:00;996.0;;;7.3;72.0
53940;BME280;39850;43.324;21.916;2024-03-08T11:06:02;995.0;;;7.3;73.0
53940;BME280;39850;43.324;21.916;2024-03-08T11:10:49;995.0;;;7.3;73.0
53940;BME280;39850;43.324;21.916;2024-03-08T11:15:26;995.0;;;7.2;73.0
53940;BME280;39850;43.324;21.916;2024-03-08T11:20:11;995.0;;;7.2;73.0
53940;BME280;39850;43.324;21.916;2024-03-08T11:24:48;995.0;;;7.3;72.0
53940;BME280;39850;43.324;21.916;2024-03-08T11:29:41;995.0;;;7.3;72.0
53940;BME280;39850;43.324;21.916;2024-03-08T11:34:19;995.0;;;7.4;72.0
53940;BME280;39850;43.324;21.916;2024-03-08T11:38:58;995.0;;;7.4;72.0
53940;BME280;39850;43.324;21.916;2024-03-08T11:43:35;995.0;;;7.7;71.0
53940;BME280;39850;43.324;21.916;2024-03-08T11:48:13;995.0;;;7.7;71.0
53940;BME280;39850;43.324;21.916;2024-03-08T11:52:51;995.0;;;7.7;71.0
53940;BME280;39850;43.324;21.916;2024-03-08T12:25:13;995.0;;;9.1;66.0
53940;BME280;39850;43.324;21.916;2024-03-08T12:29:50;995.0;;;9.1;66.0
53940;BME280;39850;43.324;21.916;2024-03-08T12:34:28;995.0;;;9.1;66.0
53940;BME280;39850;43.324;21.916;2024-03-08T12:39:06;995.0;;;9.1;66.0
53940;BME280;39850;43.324;21.916;2024-03-08T12:43:45;995.0;;;9.1;66.0
53940;BME280;39850;43.324;21.916;2024-03-08T12:48:22;995.0;;;9.1;66.0
53940;BME280;39850;43.324;21.916;2024-03-08T12:52:59;995.0;;;9.1;66.0
53940;BME280;39850;43.324;21.916;2024-03-08T12:57:37;995.0;;;9.0;66.0
53940;BME280;39850;43.324;21.916;2024-03-08T13:02:14;995.0;;;9.0;66.0
53940;BME280;39850;43.324;21.916;2024-03-08T13:06:51;995.0;;;9.0;65.0
53940;BME280;39850;43.324;21.916;2024-03-08T13:11:28;995.0;;;9.0;65.0
53940;BME280;39850;43.324;21.916;2024-03-08T13:48:25;994.0;;;8.6;66.0
53940;BME280;39850;43.324;21.916;2024-03-08T13:53:02;994.0;;;8.6;66.0
53940;BME280;39850;43.324;21.916;2024-03-08T13:57:39;994.0;;;8.6;66.0
53940;BME280;39850;43.324;21.916;2024-03-08T14:02:15;994.0;;;8.6;66.0
53940;BME280;39850;43.324;21.916;2024-03-08T14:06:52;994.0;;;8.4;67.0
53940;BME280;39850;43.324;21.916;2024-03-08T14:11:29;994.0;;;8.4;67.0
53940;BME280;39850;43.324;21.916;2024-03-08T14:16:07;994.0;;;8.1;68.0
53940;BME280;39850;43.324;21.916;2024-03-08T14:20:44;994.0;;;8.1;68.0
53940;BME280;39850;43.324;21.916;2024-03-08T14:25:22;994.0;;;8.1;68.0
53940;BME280;39850;43.324;21.916;2024-03-08T14:30:00;994.0;;;8.1;68.0
53940;BME280;39850;43.324;21.916;2024-03-08T15:06:56;994.0;;;7.2;71.0
53940;BME280;39850;43.324;21.916;2024-03-08T15:11:33;994.0;;;7.2;71.0
53940;BME280;39850;43.324;21.916;2024-03-08T15:16:10;994.0;;;7.2;72.0
53940;BME280;39850;43.324;21.916;2024-03-08T15:20:47;994.0;;;7.2;72.0
53940;BME280;39850;43.324;21.916;2024-03-08T15:25:24;994.0;;;7.3;73.0
53940;BME280;39850;43.324;21.916;2024-03-08T15:30:01;994.0;;;7.3;73.0
53940;BME280;39850;43.324;21.916;2024-03-08T15:34:42;994.0;;;7.3;74.0
53940;BME280;39850;43.324;21.916;2024-03-08T15:39:19;994.0;;;7.3;74.0
53940;BME280;39850;43.324;21.916;2024-03-08T15:43:56;994.0;;;7.3;74.0
53940;BME280;39850;43.324;21.916;2024-03-08T15:48:37;994.0;;;7.3;74.0
53940;BME280;39850;43.324;21.916;2024-03-08T15:53:15;994.0;;;7.3;74.0
53940;BME280;39850;43.324;21.916;2024-03-08T16:25:35;994.0;;;6.2;75.0
53940;BME280;39850;43.324;21.916;2024-03-08T16:30:13;994.0;;;6.2;75.0
53940;BME280;39850;43.324;21.916;2024-03-08T16:34:50;994.0;;;6.2;75.0
53940;BME280;39850;43.324;21.916;2024-03-08T16:39:28;994.0;;;6.2;75.0
53940;BME280;39850;43.324;21.916;2024-03-08T16:44:05;994.0;;;6.2;75.0
53940;BME280;39850;43.324;21.916;2024-03-08T16:48:42;994.0;;;6.2;75.0
53940;BME280;39850;43.324;21.916;2024-03-08T16:53:19;994.0;;;6.2;75.0
53940;BME280;39850;43.324;21.916;2024-03-08T16:57:57;994.0;;;6.3;75.0
53940;BME280;39850;43.324;21.916;2024-03-08T17:02:33;994.0;;;6.3;75.0
53940;BME280;39850;43.324;21.916;2024-03-08T17:07:10;994.0;;;6.4;75.0
53940;BME280;39850;43.324;21.916;2024-03-08T17:11:47;994.0;;;6.4;75.0
53940;BME280;39850;43.324;21.916;2024-03-08T17:48:44;995.0;;;6.9;73.0
53940;BME280;39850;43.324;21.916;2024-03-08T17:53:21;995.0;;;6.9;73.0
53940;BME280;39850;43.324;21.916;2024-03-08T17:57:57;995.0;;;7.1;73.0
53940;BME280;39850;43.324;21.916;2024-03-08T18:02:34;995.0;;;7.1;73.0
53940;BME280;39850;43.324;21.916;2024-03-08T18:07:10;995.0;;;6.9;73.0
53940;BME280;39850;43.324;21.916;2024-03-08T18:11:47;995.0;;;6.9;73.0
53940;BME280;39850;43.324;21.916;2024-03-08T18:16:23;995.0;;;6.8;73.0
53940;BME280;39850;43.324;21.916;2024-03-08T18:21:00;995.0;;;6.8;73.0
53940;BME280;39850;43.324;21.916;2024-03-08T18:25:36;995.0;;;6.4;73.0
53940;BME280;39850;43.324;21.916;2024-03-08T18:30:14;995.0;;;6.4;73.0
53940;BME280;39850;43.324;21.916;2024-03-08T18:34:51;995.0;;;6.4;73.0
53940;BME280;39850;43.324;21.916;2024-03-08T19:07:11;995.0;;;5.5;76.0
53940;BME280;39850;43.324;21.916;2024-03-08T19:11:47;995.0;;;5.5;76.0
53940;BME280;39850;43.324;21.916;2024-03-08T19:16:24;995.0;;;5.9;76.0
53940;BME280;39850;43.324;21.916;2024-03-08T19:21:01;995.0;;;5.9;76.0
53940;BME280;39850;43.324;21.916;2024-03-08T19:25:40;995.0;;;6.3;77.0
53940;BME280;39850;43.324;21.916;2024-03-08T19:30:17;995.0;;;6.3;77.0
53940;BME280;39850;43.324;21.916;2024-03-08T19:34:54;995.0;;;6.3;77.0
53940;BME280;39850;43.324;21.916;2024-03-08T19:39:31;995.0;;;6.4;77.0
53940;BME280;39850;43.324;21.916;2024-03-08T19:44:08;995.0;;;6.4;77.0
53940;BME280;39850;43.324;21.916;2024-03-08T19:48:44;995.0;;;6.4;77.0
53940;BME280;39850;43.324;21.916;2024-03-08T19:53:21;995.0;;;6.4;77.0
53940;BME280;39850;43.324;21.916;2024-03-08T20:25:39;995.0;;;5.8;76.0
53940;BME280;39850;43.324;21.916;2024-03-08T20:30:21;995.0;;;5.8;76.0
53940;BME280;39850;43.324;21.916;2024-03-08T20:35:00;995.0;;;5.8;76.0
53940;BME280;39850;43.324;21.916;2024-03-08T20:39:37;995.0;;;5.6;76.0
53940;BME280;39850;43.324;21.916;2024-03-08T20:44:14;995.0;;;5.6;76.0
53940;BME280;39850;43.324;21.916;2024-03-08T20:48:50;995.0;;;5.4;77.0
53940;BME280;39850;43.324;21.916;2024-03-08T20:53:28;995.0;;;5.4;77.0
53940;BME280;39850;43.324;21.916;2024-03-08T20:58:05;995.0;;;5.4;77.0
53940;BME280;39850;43.324;21.916;2024-03-08T21:02:42;995.0;;;5.4;77.0
53940;BME280;39850;43.324;21.916;2024-03-08T21:07:18;995.0;;;5.4;77.0
53940;BME280;39850;43.324;21.916;2024-03-08T21:11:59;995.0;;;5.4;77.0
53940;BME280;39850;43.324;21.916;2024-03-08T21:48:52;995.0;;;5.3;79.0
53940;BME280;39850;43.324;21.916;2024-03-08T21:53:29;995.0;;;5.3;79.0
53940;BME280;39850;43.324;21.916;2024-03-08T21:58:06;995.0;;;5.3;79.0
53940;BME280;39850;43.324;21.916;2024-03-08T22:02:48;995.0;;;5.3;79.0
53940;BME280;39850;43.324;21.916;2024-03-08T22:07:26;995.0;;;5.3;79.0
53940;BME280;39850;43.324;21.916;2024-03-08T22:12:05;995.0;;;5.3;79.0
53940;BME280;39850;43.324;21.916;2024-03-08T22:16:43;995.0;;;5.3;79.0
53940;BME280;39850;43.324;21.916;2024-03-08T22:21:21;995.0;;;5.3;79.0
53940;BME280;39850;43.324;21.916;2024-03-08T22:25:58;995.0;;;5.3;78.0
53940;BME280;39850;43.324;21.916;2024-03-08T22:30:35;995.0;;;5.3;78.0
53940;BME280;39850;43.324;21.916;2024-03-08T22:35:12;995.0;;;5.3;78.0
53940;BME280;39850;43.324;21.916;2024-03-08T23:07:27;995.0;;;4.9;80.0
53940;BME280;39850;43.324;21.916;2024-03-08T23:12:05;995.0;;;4.9;80.0
53940;BME280;39850;43.324;21.916;2024-03-08T23:16:43;995.0;;;5.2;80.0
53940;BME280;39850;43.324;21.916;2024-03-08T23:21:20;995.0;;;5.2;80.0
53940;BME280;39850;43.324;21.916;2024-03-08T23:25:57;995.0;;;5.2;80.0
53940;BME280;39850;43.324;21.916;2024-03-08T23:30:36;995.0;;;5.5;80.0
53940;BME280;39850;43.324;21.916;2024-03-08T23:35:15;995.0;;;5.5;80.0
53940;BME280;39850;43.324;21.916;2024-03-08T23:39:52;995.0;;;5.5;80.0
53940;BME280;39850;43.324;21.916;2024-03-08T23:44:29;995.0;;;5.5;80.0
53940;BME280;39850;43.324;21.916;2024-03-08T23:49:06;995.0;;;5.5;81.0
53940;BME280;39850;43.324;21.916;2024-03-08T23:53:43;995.0;;;5.5;81.0
